首页
METAR-TAF:

METAR-TAF

机场 :

马略卡岛帕尔马机场

帕爾馬, 西班牙

纬度: 39-33N, 经度: 002-44E, 海拔: 4米

当前天气观测

该预报发布于10分钟前的08:30 UTC
风速4节,风向东北,在北转东北之间变化
温度 9°C
湿度 100%
气压 1028 hPa
能见度10公里或以上
少量云层高于1400英尺

METAR: LEPA 170830Z 05004KT 020V080 9999 FEW014 09/09 Q1028 NOSIG

时间: 09:40 (08:40 UTC)

预报

该预报发布于3小时和40分钟前的05:00 UTC
预报有效从17日的 06点(UTC)到 18日的 06点(UTC)
风速6节,风向东北
能见度10公里或以上
少量云层高于2000英尺
短暂存在
从 17日的 06点(UTC)到 17日的 09点(UTC)
能見度: 2000
多云层高于800英尺
轻雾
几率 40% :
短暂存在
从 17日的 06点(UTC)到 17日的 09点(UTC)
能見度: 0400
层高于200英尺
碎片雾
成为
从 17日的 11点(UTC)到 17日的 13点(UTC)
风速7节,风向西南
成为
从 17日的 17点(UTC)到 17日的 19点(UTC)
风速5节,风向东北

TAF: LEPA 170500Z 1706/1806 04006KT 9999 FEW020 TX18/1712Z TN05/1706Z TEMPO 1706/1709 2000 BR BKN008 PROB40 TEMPO 1706/1709 0400 BCFG VV002 BECMG 1711/1713 22007KT BECMG 1717/1719 05005KT

超过4000个机场的气象观测和天气预报(METAR&TAF报告)。

可查询的气象台以黄色和红色小点在地图上表示。

将鼠标移到小点上方,可查看气象台名称。

然后点击查看天气观测和预报。

如需切换地图:点击带黑十字的绿色按钮放大地图;点击带横线的绿色按钮缩小地图;或者点击绿色箭头查看邻近地区的地图。


METAR-TAF: